Time;durP1;ratioP1;P1;durP2;ratioP2;P2;SDS_P1;SDS_P2;PMS_P1;PMS_P2;Temp;Humidity;BMP_temperature;BMP_pressure;BME280_temperature;BME280_humidity;BME280_pressure;Samples;Min_cycle;Max_cycle;Signal;HPM_P1;HPM_P2
2022/02/13 00:00:40;;;;;;;10.47;6.53;;;-2.90;99.90;;;;;;2096874;28;20565;-70
2022/02/13 00:01:40;;;;;;;9.33;5.00;;;-3.00;99.90;;;;;;2094944;28;20256;-71
2022/02/13 00:02:43;;;;;;;10.30;5.50;;;-2.90;99.90;;;;;;2113654;28;20185;-68
2022/02/13 00:03:44;;;;;;;11.07;5.75;;;-2.90;99.90;;;;;;2113157;28;20195;-69
2022/02/13 00:04:44;;;;;;;7.63;5.13;;;-3.00;99.90;;;;;;2096365;28;20801;-70
2022/02/13 00:05:45;;;;;;;13.70;6.37;;;-3.00;99.90;;;;;;2096521;28;20564;-69
2022/02/13 00:06:46;;;;;;;13.27;5.97;;;-3.00;99.90;;;;;;2097498;28;20820;-69
2022/02/13 00:07:47;;;;;;;9.77;5.60;;;-3.00;99.90;;;;;;2097698;28;20180;-69
2022/02/13 00:08:47;;;;;;;8.17;5.33;;;-3.00;99.90;;;;;;2097948;28;20183;-69
2022/02/13 00:09:48;;;;;;;12.00;5.47;;;-3.00;99.90;;;;;;2098080;28;20606;-69
2022/02/13 00:10:49;;;;;;;8.75;5.28;;;-3.00;99.90;;;;;;2097835;28;20182;-69
2022/02/13 00:11:50;;;;;;;9.68;5.00;;;-2.90;99.90;;;;;;2097494;28;20670;-69
2022/02/13 00:12:51;;;;;;;10.23;5.80;;;-2.90;99.90;;;;;;2096961;28;20178;-69
2022/02/13 00:13:51;;;;;;;8.17;5.03;;;-2.90;99.90;;;;;;2097173;28;20203;-68
2022/02/13 00:14:55;;;;;;;9.77;5.30;;;-3.00;99.90;;;;;;2097761;28;20180;-69
2022/02/13 00:15:55;;;;;;;12.10;5.53;;;-3.00;99.90;;;;;;2097758;28;20677;-69
2022/02/13 00:16:56;;;;;;;10.40;4.80;;;-3.00;99.90;;;;;;2097709;28;20181;-70
2022/02/13 00:17:57;;;;;;;9.80;6.03;;;-3.10;99.90;;;;;;2097786;28;20182;-69
2022/02/13 00:18:58;;;;;;;11.80;6.17;;;-3.00;99.90;;;;;;2097606;28;20176;-71
2022/02/13 00:19:59;;;;;;;12.40;5.80;;;-3.00;99.90;;;;;;2097823;28;20532;-71
2022/02/13 00:20:59;;;;;;;10.20;5.50;;;-3.00;99.90;;;;;;2097181;28;20180;-72
2022/02/13 00:22:00;;;;;;;8.57;4.77;;;-3.00;99.90;;;;;;2097079;28;20184;-71
2022/02/13 00:23:01;;;;;;;10.07;5.57;;;-3.00;99.90;;;;;;2090977;28;20180;-72
2022/02/13 00:24:01;;;;;;;9.53;5.13;;;-3.00;99.90;;;;;;2089000;28;20185;-71
2022/02/13 00:25:03;;;;;;;6.27;4.53;;;-3.10;99.90;;;;;;2080355;28;20200;-72
2022/02/13 00:26:04;;;;;;;9.05;4.90;;;-3.10;99.90;;;;;;2097409;28;20280;-72
2022/02/13 00:27:05;;;;;;;8.97;5.20;;;-3.10;99.90;;;;;;2105509;28;20742;-71
2022/02/13 00:28:08;;;;;;;11.53;4.93;;;-3.10;99.90;;;;;;2089482;28;20185;-72
2022/02/13 00:29:10;;;;;;;9.02;4.60;;;-3.10;99.90;;;;;;2088647;28;20185;-71
2022/02/13 00:30:13;;;;;;;9.57;5.28;;;-3.10;99.90;;;;;;2081176;28;20186;-72
2022/02/13 00:31:13;;;;;;;9.25;4.78;;;-3.10;99.90;;;;;;2072702;28;20193;-71
2022/02/13 00:32:14;;;;;;;9.93;5.67;;;-3.10;99.90;;;;;;2080670;28;20707;-71
2022/02/13 00:33:16;;;;;;;10.00;4.90;;;-3.10;99.90;;;;;;2088754;28;20219;-72
2022/02/13 00:34:16;;;;;;;8.63;4.22;;;-3.10;99.90;;;;;;2080494;28;20196;-71
2022/02/13 00:35:17;;;;;;;7.50;4.43;;;-3.20;99.90;;;;;;2088817;28;20186;-71
2022/02/13 00:36:18;;;;;;;7.93;4.40;;;-3.20;99.90;;;;;;2088948;28;20448;-71
2022/02/13 00:37:19;;;;;;;9.03;3.83;;;-3.20;99.90;;;;;;2088768;28;20598;-71
2022/02/13 00:38:19;;;;;;;7.83;4.60;;;-3.20;99.90;;;;;;2089550;28;20183;-71
2022/02/13 00:39:20;;;;;;;6.17;3.73;;;-3.20;99.90;;;;;;2089290;28;20219;-72
2022/02/13 00:40:21;;;;;;;10.07;5.10;;;-3.20;99.90;;;;;;2089346;28;20189;-71
2022/02/13 00:41:21;;;;;;;6.90;4.07;;;-3.20;99.90;;;;;;2088725;28;20177;-71
2022/02/13 00:42:22;;;;;;;9.30;4.27;;;-3.10;99.90;;;;;;2088839;28;20184;-72
2022/02/13 00:43:23;;;;;;;7.40;4.03;;;-3.10;99.90;;;;;;2089682;28;20192;-72
2022/02/13 00:44:23;;;;;;;7.20;4.40;;;-3.20;99.90;;;;;;2089294;28;20184;-71
2022/02/13 00:45:24;;;;;;;6.43;4.00;;;-3.10;99.90;;;;;;2089111;28;20177;-72
2022/02/13 00:46:25;;;;;;;10.27;5.00;;;-3.10;99.90;;;;;;2089294;28;20168;-71
2022/02/13 00:47:26;;;;;;;8.83;4.50;;;-3.10;99.90;;;;;;2089362;28;20177;-71
2022/02/13 00:48:26;;;;;;;6.55;3.53;;;-3.10;99.90;;;;;;2088689;28;20280;-72
2022/02/13 00:49:27;;;;;;;8.00;4.30;;;-3.10;99.90;;;;;;2088623;28;20597;-72
2022/02/13 00:50:28;;;;;;;8.20;4.38;;;-3.10;99.90;;;;;;2089298;28;20188;-71
2022/02/13 00:51:29;;;;;;;9.57;4.00;;;-3.10;99.90;;;;;;2089407;28;20190;-72
2022/02/13 00:52:32;;;;;;;7.77;4.10;;;-3.10;99.90;;;;;;2088791;28;20179;-71
2022/02/13 00:53:33;;;;;;;8.43;4.53;;;-3.20;99.90;;;;;;2088447;28;20204;-71
2022/02/13 00:54:34;;;;;;;22.60;4.93;;;-3.10;99.90;;;;;;2088608;28;20623;-71
2022/02/13 00:55:34;;;;;;;9.07;3.83;;;-3.10;99.90;;;;;;2088669;28;20173;-71
2022/02/13 00:56:35;;;;;;;7.63;4.03;;;-3.10;99.90;;;;;;2096752;28;20182;-71
2022/02/13 00:57:35;;;;;;;7.57;3.43;;;-3.10;99.90;;;;;;2097015;28;20169;-71
2022/02/13 00:58:36;;;;;;;8.07;3.90;;;-3.10;99.90;;;;;;2088575;28;20180;-71
2022/02/13 00:59:37;;;;;;;6.63;4.00;;;-3.10;99.90;;;;;;2088474;28;20185;-71
2022/02/13 01:00:37;;;;;;;6.63;3.83;;;-3.10;99.90;;;;;;2088380;28;20199;-71
2022/02/13 01:01:38;;;;;;;7.37;3.47;;;-3.10;99.90;;;;;;2089221;28;20203;-71
2022/02/13 01:02:39;;;;;;;7.60;3.20;;;-3.10;99.90;;;;;;2088535;28;20186;-71
2022/02/13 01:03:40;;;;;;;11.93;4.47;;;-3.10;99.90;;;;;;2088326;28;20194;-71
2022/02/13 01:04:41;;;;;;;5.93;3.78;;;-3.10;99.90;;;;;;2087556;28;20177;-72
2022/02/13 01:05:41;;;;;;;6.10;3.60;;;-3.10;99.90;;;;;;2080350;28;20186;-72
2022/02/13 01:06:42;;;;;;;8.63;3.20;;;-3.10;99.90;;;;;;2088560;28;20185;-71
2022/02/13 01:07:43;;;;;;;5.65;3.55;;;-3.10;99.90;;;;;;2088337;28;20181;-71
2022/02/13 01:08:44;;;;;;;7.43;4.20;;;-3.20;99.90;;;;;;2088580;28;20164;-71
2022/02/13 01:09:45;;;;;;;9.43;3.90;;;-3.30;99.90;;;;;;2089227;28;21004;-72
2022/02/13 01:10:45;;;;;;;6.60;3.90;;;-3.30;99.90;;;;;;2089128;28;20661;-71
2022/02/13 01:11:46;;;;;;;6.03;3.90;;;-3.30;99.90;;;;;;2089086;28;20599;-71
2022/02/13 01:12:47;;;;;;;7.10;3.73;;;-3.30;99.90;;;;;;2089004;28;20175;-71
2022/02/13 01:13:48;;;;;;;6.30;3.53;;;-3.30;99.90;;;;;;2089174;28;20199;-71
2022/02/13 01:14:49;;;;;;;7.63;4.32;;;-3.20;99.90;;;;;;2096414;28;20211;-72
2022/02/13 01:15:49;;;;;;;6.13;3.60;;;-3.20;99.90;;;;;;2096746;28;20176;-71
2022/02/13 01:16:50;;;;;;;11.80;3.97;;;-3.10;99.90;;;;;;2089157;28;20178;-72
2022/02/13 01:17:51;;;;;;;8.20;3.80;;;-3.10;99.90;;;;;;2088456;28;20172;-72
2022/02/13 01:18:52;;;;;;;7.03;3.87;;;-3.20;99.90;;;;;;2088404;28;20613;-72
2022/02/13 01:19:52;;;;;;;6.17;3.70;;;-3.20;99.90;;;;;;2088366;28;20185;-71
2022/02/13 01:20:53;;;;;;;6.47;3.60;;;-3.20;99.90;;;;;;2080226;28;20256;-71
2022/02/13 01:21:54;;;;;;;8.27;3.85;;;-3.20;99.90;;;;;;2088540;28;20176;-71
2022/02/13 01:22:54;;;;;;;4.83;3.30;;;-3.20;99.90;;;;;;2088891;28;20710;-72
2022/02/13 01:23:55;;;;;;;7.43;3.83;;;-3.20;99.90;;;;;;2089129;28;20576;-71
2022/02/13 01:24:56;;;;;;;8.10;4.72;;;-3.30;99.90;;;;;;2088431;28;20207;-71
2022/02/13 01:25:57;;;;;;;5.90;3.60;;;-3.30;99.90;;;;;;2088616;28;20181;-71
2022/02/13 01:26:58;;;;;;;5.72;3.20;;;-3.30;99.90;;;;;;2089196;28;20268;-71
2022/02/13 01:28:00;;;;;;;9.37;3.90;;;-3.30;99.90;;;;;;2089039;28;20190;-72
2022/02/13 01:29:00;;;;;;;9.43;3.80;;;-3.30;99.90;;;;;;2088854;28;20176;-71
2022/02/13 01:30:01;;;;;;;5.90;4.03;;;-3.30;99.90;;;;;;2088400;28;20195;-72
2022/02/13 01:31:02;;;;;;;5.87;3.90;;;-3.30;99.90;;;;;;2088480;28;20191;-71
2022/02/13 01:32:04;;;;;;;7.57;3.53;;;-3.30;99.90;;;;;;2088291;28;20213;-71
2022/02/13 01:33:04;;;;;;;5.72;3.65;;;-3.20;99.90;;;;;;2088306;28;20188;-72
2022/02/13 01:34:06;;;;;;;9.20;3.60;;;-3.20;99.90;;;;;;2096588;28;20176;-71
2022/02/13 01:35:07;;;;;;;10.23;3.58;;;-3.30;99.90;;;;;;2088424;28;20177;-71
2022/02/13 01:36:09;;;;;;;6.25;3.53;;;-3.30;99.90;;;;;;2080246;28;20263;-71
2022/02/13 01:37:09;;;;;;;6.07;3.65;;;-3.20;99.90;;;;;;2088483;28;20186;-71
2022/02/13 01:38:10;;;;;;;8.50;4.07;;;-3.20;99.90;;;;;;2096557;28;20180;-72
2022/02/13 01:39:11;;;;;;;5.57;3.53;;;-3.20;99.90;;;;;;2096449;28;20233;-71
2022/02/13 01:40:13;;;;;;;6.57;3.58;;;-3.20;99.90;;;;;;2096610;28;20557;-71
2022/02/13 01:41:13;;;;;;;6.47;3.35;;;-3.20;99.90;;;;;;2088461;28;20193;-72
2022/02/13 01:42:15;;;;;;;5.13;3.40;;;-3.20;99.90;;;;;;2080193;28;20192;-71
2022/02/13 01:43:15;;;;;;;7.10;3.50;;;-3.20;99.90;;;;;;2080228;28;20549;-71
2022/02/13 01:44:29;;;;;;;8.93;4.07;;;-3.30;99.90;;;;;;2096725;28;20256;-71
2022/02/13 01:45:29;;;;;;;7.40;3.22;;;-3.30;99.90;;;;;;2095014;28;20166;-72
2022/02/13 01:46:30;;;;;;;6.47;3.43;;;-3.30;99.90;;;;;;2088289;28;20184;-72
2022/02/13 01:47:34;;;;;;;5.30;3.60;;;-3.30;99.90;;;;;;2089021;28;20230;-71
2022/02/13 01:48:34;;;;;;;6.88;3.60;;;-3.30;99.90;;;;;;2088383;28;20263;-71
2022/02/13 01:49:35;;;;;;;6.13;3.70;;;-3.30;99.90;;;;;;2080551;28;20188;-71
2022/02/13 01:50:38;;;;;;;6.97;3.77;;;-3.30;99.90;;;;;;2088263;28;20173;-72
2022/02/13 01:51:39;;;;;;;6.95;3.65;;;-3.30;99.90;;;;;;2088319;28;20181;-72
2022/02/13 01:52:42;;;;;;;7.07;4.00;;;-3.30;99.90;;;;;;2088289;28;20185;-71
2022/02/13 01:53:42;;;;;;;6.38;3.30;;;-3.30;99.90;;;;;;2096945;28;20191;-71
2022/02/13 01:54:43;;;;;;;6.47;3.80;;;-3.40;99.90;;;;;;2096312;28;20182;-71
2022/02/13 01:55:48;;;;;;;8.77;4.57;;;-3.40;99.90;;;;;;2088306;28;20553;-71
2022/02/13 01:56:48;;;;;;;7.00;3.53;;;-3.40;99.90;;;;;;2088413;28;20201;-71
2022/02/13 01:57:49;;;;;;;5.20;3.57;;;-3.40;99.90;;;;;;2096858;28;20191;-71
2022/02/13 01:58:50;;;;;;;6.80;3.27;;;-3.40;99.90;;;;;;2104918;28;20530;-71
2022/02/13 01:59:50;;;;;;;7.60;3.73;;;-3.40;99.90;;;;;;2089147;28;20176;-72
2022/02/13 02:00:51;;;;;;;7.00;4.20;;;-3.40;99.90;;;;;;2088989;28;20187;-71
2022/02/13 02:01:52;;;;;;;6.47;3.20;;;-3.40;99.90;;;;;;2089194;28;20182;-71
2022/02/13 02:02:53;;;;;;;6.03;3.67;;;-3.50;99.90;;;;;;2088384;28;20188;-72
2022/02/13 02:03:53;;;;;;;11.15;4.78;;;-3.40;99.90;;;;;;2080274;28;20204;-71
2022/02/13 02:04:54;;;;;;;8.47;3.80;;;-3.40;99.90;;;;;;2088162;28;20234;-71
2022/02/13 02:05:55;;;;;;;6.68;4.20;;;-3.40;99.90;;;;;;2088996;28;20208;-71
2022/02/13 02:06:56;;;;;;;6.13;3.35;;;-3.40;99.90;;;;;;2088402;28;20180;-71
2022/02/13 02:07:57;;;;;;;6.20;3.70;;;-3.50;99.90;;;;;;2096807;28;20197;-71
2022/02/13 02:08:57;;;;;;;8.17;3.87;;;-3.50;99.90;;;;;;2104889;28;20175;-72
2022/02/13 02:09:58;;;;;;;7.63;3.90;;;-3.50;99.90;;;;;;2089143;28;20192;-71
2022/02/13 02:10:59;;;;;;;6.23;3.53;;;-3.50;99.90;;;;;;2088984;28;20184;-72
2022/02/13 02:12:04;;;;;;;6.43;4.13;;;-3.50;99.90;;;;;;2088962;28;20663;-71
2022/02/13 02:13:05;;;;;;;8.32;3.95;;;-3.50;99.90;;;;;;2088911;28;20281;-71
2022/02/13 02:14:06;;;;;;;5.57;3.50;;;-3.40;99.90;;;;;;2089155;28;20184;-71
2022/02/13 02:15:07;;;;;;;7.40;3.80;;;-3.40;99.90;;;;;;2088844;28;20172;-71
2022/02/13 02:16:10;;;;;;;7.03;3.60;;;-3.40;99.90;;;;;;2090118;28;20173;-72
2022/02/13 02:17:11;;;;;;;7.45;3.63;;;-3.40;99.90;;;;;;2090543;28;20211;-72
2022/02/13 02:18:12;;;;;;;8.97;4.23;;;-3.50;99.90;;;;;;2090509;28;20598;-71
2022/02/13 02:19:13;;;;;;;7.30;3.97;;;-3.50;99.90;;;;;;2090384;28;20246;-71
2022/02/13 02:20:14;;;;;;;6.90;3.72;;;-3.40;99.90;;;;;;2090237;28;20215;-71
2022/02/13 02:21:14;;;;;;;7.43;4.17;;;-3.50;99.90;;;;;;2089841;28;20181;-71
2022/02/13 02:22:16;;;;;;;8.90;4.20;;;-3.50;99.90;;;;;;2089848;28;20260;-71
2022/02/13 02:23:17;;;;;;;7.68;4.10;;;-3.50;99.90;;;;;;2090418;28;20686;-71
2022/02/13 02:24:17;;;;;;;10.33;4.80;;;-3.50;99.90;;;;;;2090314;28;20184;-71
2022/02/13 02:25:18;;;;;;;6.53;3.67;;;-3.50;99.90;;;;;;2089981;28;20188;-71
2022/02/13 02:26:19;;;;;;;8.10;4.03;;;-3.50;99.90;;;;;;2089982;28;20182;-72
2022/02/13 02:27:20;;;;;;;7.90;4.38;;;-3.50;99.90;;;;;;2090328;28;20231;-71
2022/02/13 02:28:20;;;;;;;13.47;5.03;;;-3.60;99.90;;;;;;2089766;28;20185;-71
2022/02/13 02:29:21;;;;;;;8.30;4.57;;;-3.60;99.90;;;;;;2089770;28;20181;-71
2022/02/13 02:30:22;;;;;;;8.30;5.10;;;-3.60;99.90;;;;;;2090464;28;20176;-71
2022/02/13 02:31:22;;;;;;;8.60;4.27;;;-3.60;99.90;;;;;;2090377;28;20180;-71
2022/02/13 02:32:23;;;;;;;11.10;4.90;;;-3.50;99.90;;;;;;2090523;28;20235;-71
2022/02/13 02:33:24;;;;;;;6.30;3.77;;;-3.60;99.90;;;;;;2090344;28;20197;-71
2022/02/13 02:34:25;;;;;;;7.40;3.77;;;-3.60;99.90;;;;;;2090265;28;20180;-72
2022/02/13 02:35:25;;;;;;;8.13;4.30;;;-3.60;99.90;;;;;;2089876;28;20203;-71
2022/02/13 02:36:27;;;;;;;11.17;4.20;;;-3.70;99.90;;;;;;2089754;28;20816;-71
2022/02/13 02:37:28;;;;;;;8.07;3.65;;;-3.70;99.90;;;;;;2089793;28;20181;-71
2022/02/13 02:38:28;;;;;;;8.70;4.80;;;-3.70;99.90;;;;;;2081462;28;20663;-71
2022/02/13 02:39:29;;;;;;;8.37;4.53;;;-3.60;99.90;;;;;;2089640;28;20554;-71
2022/02/13 02:40:30;;;;;;;8.00;4.50;;;-3.60;99.90;;;;;;2090358;28;20581;-73
2022/02/13 02:41:31;;;;;;;9.27;4.40;;;-3.60;99.90;;;;;;2089750;28;20199;-71
2022/02/13 02:42:32;;;;;;;7.45;5.00;;;-3.60;99.90;;;;;;2089619;28;20166;-71
2022/02/13 02:43:32;;;;;;;9.47;4.83;;;-3.60;99.90;;;;;;2081400;28;20343;-71
2022/02/13 02:44:33;;;;;;;7.50;4.20;;;-3.60;99.90;;;;;;2081230;28;20176;-71
2022/02/13 02:45:34;;;;;;;7.63;4.67;;;-3.60;99.90;;;;;;2081544;28;20249;-73
2022/02/13 02:46:35;;;;;;;13.63;4.70;;;-3.60;99.90;;;;;;2081501;28;20186;-72
2022/02/13 02:47:35;;;;;;;8.50;4.65;;;-3.50;99.90;;;;;;2098003;28;20181;-71
2022/02/13 02:48:36;;;;;;;12.30;4.87;;;-3.50;99.90;;;;;;2106252;28;20187;-71
2022/02/13 02:49:37;;;;;;;8.65;4.50;;;-3.50;99.90;;;;;;2090178;28;20623;-71
2022/02/13 02:50:38;;;;;;;7.10;4.60;;;-3.50;99.90;;;;;;2090421;28;20184;-71
2022/02/13 02:51:39;;;;;;;9.10;4.70;;;-3.50;99.90;;;;;;2089784;28;20207;-71
2022/02/13 02:52:40;;;;;;;10.37;4.37;;;-3.50;99.90;;;;;;2089917;28;20173;-71
2022/02/13 02:53:42;;;;;;;7.28;4.45;;;-3.50;99.90;;;;;;2089884;28;20196;-71
2022/02/13 02:54:43;;;;;;;9.40;4.90;;;-3.50;99.90;;;;;;2089633;28;20176;-74
2022/02/13 02:55:44;;;;;;;6.50;4.27;;;-3.60;99.90;;;;;;2090411;28;20166;-71
2022/02/13 02:56:44;;;;;;;17.40;4.67;;;-3.60;99.90;;;;;;2090186;28;20170;-72
2022/02/13 02:57:45;;;;;;;11.33;4.47;;;-3.60;99.90;;;;;;2090360;28;20180;-71
2022/02/13 02:58:45;;;;;;;7.60;3.57;;;-3.60;99.90;;;;;;2090168;28;20174;-71
2022/02/13 02:59:46;;;;;;;8.30;4.33;;;-3.60;99.90;;;;;;2090250;28;20662;-71
2022/02/13 03:00:48;;;;;;;9.93;4.07;;;-3.60;99.90;;;;;;2090176;28;20558;-71
2022/02/13 03:01:48;;;;;;;6.40;3.85;;;-3.60;99.90;;;;;;2089248;28;20182;-71
2022/02/13 03:02:49;;;;;;;8.47;4.00;;;-3.60;99.90;;;;;;2089452;28;20573;-71
2022/02/13 03:03:50;;;;;;;6.73;4.30;;;-3.60;99.90;;;;;;2090147;28;20204;-71
2022/02/13 03:04:50;;;;;;;6.33;4.00;;;-3.60;99.90;;;;;;2089493;28;20190;-72
2022/02/13 03:05:52;;;;;;;5.87;3.93;;;-3.60;99.90;;;;;;2089445;28;21045;-71
2022/02/13 03:06:52;;;;;;;7.57;3.53;;;-3.70;99.90;;;;;;2090271;28;20202;-71
2022/02/13 03:07:53;;;;;;;7.03;3.47;;;-3.60;99.90;;;;;;2106194;28;20184;-70
2022/02/13 03:08:54;;;;;;;5.67;3.47;;;-3.70;99.90;;;;;;2097803;28;20630;-71
2022/02/13 03:09:54;;;;;;;5.30;3.77;;;-3.60;99.90;;;;;;2089567;28;20724;-71
2022/02/13 03:10:55;;;;;;;6.30;3.83;;;-3.70;99.90;;;;;;2097726;28;20564;-71
2022/02/13 03:11:56;;;;;;;6.57;3.37;;;-3.70;99.90;;;;;;2097550;28;20305;-71
2022/02/13 03:12:57;;;;;;;10.27;3.83;;;-3.70;99.90;;;;;;2097595;28;20610;-71
2022/02/13 03:13:58;;;;;;;8.35;3.35;;;-3.60;99.90;;;;;;2097763;28;20191;-71
2022/02/13 03:14:58;;;;;;;5.00;3.10;;;-3.60;99.90;;;;;;2089995;28;20667;-71
2022/02/13 03:15:59;;;;;;;5.73;3.20;;;-3.60;99.90;;;;;;2090046;28;20576;-71
2022/02/13 03:17:03;;;;;;;5.43;3.15;;;-3.70;99.90;;;;;;2089996;28;20701;-70
2022/02/13 03:18:04;;;;;;;6.30;3.72;;;-3.60;99.90;;;;;;2089344;28;20182;-71
2022/02/13 03:19:05;;;;;;;5.60;3.73;;;-3.60;99.90;;;;;;2089394;28;20176;-71
2022/02/13 03:20:06;;;;;;;7.83;4.00;;;-3.60;99.90;;;;;;2097765;28;20238;-71
2022/02/13 03:21:07;;;;;;;7.38;3.60;;;-3.60;99.90;;;;;;2089331;28;20176;-71
2022/02/13 03:22:07;;;;;;;5.70;3.33;;;-3.60;99.90;;;;;;2089120;28;20525;-70
2022/02/13 03:23:08;;;;;;;5.53;3.33;;;-3.60;99.90;;;;;;2089836;28;20422;-70
2022/02/13 03:24:09;;;;;;;6.53;3.77;;;-3.60;99.90;;;;;;2089109;28;20944;-71
2022/02/13 03:25:10;;;;;;;6.18;3.40;;;-3.50;99.90;;;;;;2081026;28;20270;-70
2022/02/13 03:26:10;;;;;;;8.47;3.93;;;-3.50;99.90;;;;;;2089211;28;20185;-71
2022/02/13 03:27:11;;;;;;;6.63;3.30;;;-3.60;99.90;;;;;;2089070;28;20189;-71
2022/02/13 03:28:12;;;;;;;6.40;3.37;;;-3.50;99.90;;;;;;2089337;28;20192;-71
2022/02/13 03:29:14;;;;;;;4.10;2.80;;;-3.50;99.90;;;;;;2089095;28;20702;-71
2022/02/13 03:30:15;;;;;;;8.00;3.50;;;-3.50;99.90;;;;;;2081075;28;20694;-71
2022/02/13 03:31:15;;;;;;;3.80;2.70;;;-3.60;99.90;;;;;;2089216;28;20198;-70
2022/02/13 03:32:16;;;;;;;4.77;3.20;;;-3.50;99.90;;;;;;2089710;28;20196;-71
2022/02/13 03:33:17;;;;;;;5.63;2.87;;;-3.50;99.90;;;;;;2089680;28;20552;-70
2022/02/13 03:34:17;;;;;;;6.40;3.60;;;-3.50;99.90;;;;;;2089839;28;20625;-71
2022/02/13 03:35:18;;;;;;;6.30;3.73;;;-3.50;99.90;;;;;;2097383;28;20204;-71
2022/02/13 03:36:19;;;;;;;6.70;3.80;;;-3.70;99.90;;;;;;2097438;28;20186;-71
2022/02/13 03:37:23;;;;;;;6.80;3.77;;;-3.70;99.90;;;;;;2089743;28;20268;-70
2022/02/13 03:38:24;;;;;;;12.00;4.35;;;-3.60;99.90;;;;;;2088139;28;20259;-71
2022/02/13 03:39:28;;;;;;;10.70;4.40;;;-3.60;99.90;;;;;;2088996;28;20663;-71
2022/02/13 03:40:29;;;;;;;8.77;4.25;;;-3.60;99.90;;;;;;2089093;28;20188;-71
2022/02/13 03:41:30;;;;;;;7.90;4.40;;;-3.60;99.90;;;;;;2089081;28;20606;-70
2022/02/13 03:42:31;;;;;;;5.85;3.97;;;-3.60;99.90;;;;;;2089108;28;20181;-70
2022/02/13 03:43:31;;;;;;;8.33;4.00;;;-3.60;99.90;;;;;;2089124;28;20203;-70
2022/02/13 03:44:33;;;;;;;8.33;3.90;;;-3.60;99.90;;;;;;2089538;28;20182;-70
2022/02/13 03:45:34;;;;;;;6.80;4.05;;;-3.60;99.90;;;;;;2089080;28;20184;-71
2022/02/13 03:46:35;;;;;;;7.93;4.55;;;-3.60;99.90;;;;;;2089049;28;20238;-71
2022/02/13 03:47:36;;;;;;;7.23;4.70;;;-3.70;99.90;;;;;;2089738;28;20696;-71
2022/02/13 03:48:36;;;;;;;7.40;4.33;;;-3.70;99.90;;;;;;2088983;28;20550;-71
2022/02/13 03:49:37;;;;;;;7.00;4.23;;;-3.70;99.90;;;;;;2088902;28;20200;-71
2022/02/13 03:50:38;;;;;;;6.40;3.73;;;-3.70;99.90;;;;;;2089641;28;20398;-71
2022/02/13 03:51:39;;;;;;;6.88;3.83;;;-3.80;99.90;;;;;;2088981;28;20187;-71
2022/02/13 03:52:39;;;;;;;10.47;4.80;;;-3.80;99.90;;;;;;2089029;28;20235;-71
2022/02/13 03:53:40;;;;;;;8.10;5.17;;;-3.70;99.90;;;;;;2088976;28;20192;-71
2022/02/13 03:54:41;;;;;;;7.97;4.43;;;-3.80;99.90;;;;;;2088848;28;20187;-71
2022/02/13 03:55:41;;;;;;;8.57;4.27;;;-3.80;99.90;;;;;;2089038;28;20224;-71
2022/02/13 03:56:42;;;;;;;7.37;4.33;;;-3.90;99.90;;;;;;2089569;28;20172;-70
2022/02/13 03:57:44;;;;;;;8.53;4.50;;;-3.90;99.90;;;;;;2089672;28;20176;-71
2022/02/13 03:58:45;;;;;;;6.90;4.47;;;-3.80;99.90;;;;;;2089554;28;20177;-70
2022/02/13 03:59:45;;;;;;;7.35;4.55;;;-3.90;99.90;;;;;;2088810;28;20184;-71
2022/02/13 04:00:46;;;;;;;8.13;3.70;;;-3.80;99.90;;;;;;2088920;28;20176;-71
2022/02/13 04:01:46;;;;;;;6.43;3.60;;;-3.80;99.90;;;;;;2089574;28;20172;-71
2022/02/13 04:02:47;;;;;;;12.67;3.97;;;-3.80;99.90;;;;;;2088950;28;20606;-70
2022/02/13 04:03:48;;;;;;;6.50;3.50;;;-3.80;99.90;;;;;;2089089;28;20813;-70
2022/02/13 04:04:50;;;;;;;7.40;3.80;;;-3.80;99.90;;;;;;2088772;28;20199;-70
2022/02/13 04:05:53;;;;;;;7.80;4.40;;;-3.90;99.90;;;;;;2088914;28;20180;-70
2022/02/13 04:06:54;;;;;;;7.40;4.03;;;-3.80;99.90;;;;;;2088911;28;20195;-70
2022/02/13 04:07:55;;;;;;;9.90;4.50;;;-3.90;99.90;;;;;;2088870;28;20191;-70
2022/02/13 04:08:56;;;;;;;7.55;4.70;;;-4.00;99.90;;;;;;2088810;28;20218;-70
2022/02/13 04:09:56;;;;;;;6.90;4.30;;;-4.00;99.90;;;;;;2088960;28;20275;-70
2022/02/13 04:10:58;;;;;;;12.40;4.57;;;-4.10;99.90;;;;;;2080518;28;20185;-70
2022/02/13 04:11:59;;;;;;;7.32;4.10;;;-4.10;99.90;;;;;;2088852;28;20212;-70
2022/02/13 04:13:00;;;;;;;5.60;4.13;;;-4.20;99.90;;;;;;2088825;28;20185;-70
2022/02/13 04:14:01;;;;;;;7.25;4.38;;;-4.20;99.90;;;;;;2088966;28;20172;-70
2022/02/13 04:15:04;;;;;;;9.37;4.03;;;-4.20;99.90;;;;;;2080419;28;20181;-70
2022/02/13 04:16:05;;;;;;;5.80;3.72;;;-4.20;99.90;;;;;;2088878;28;20192;-70
2022/02/13 04:17:05;;;;;;;5.18;3.33;;;-4.10;99.90;;;;;;2096969;28;20676;-70
2022/02/13 04:18:15;;;;;;;6.00;3.43;;;-4.10;99.90;;;;;;2097055;28;20172;-70
2022/02/13 04:19:16;;;;;;;4.82;3.25;;;-4.10;99.90;;;;;;2105005;28;20266;-70
2022/02/13 04:20:16;;;;;;;6.73;4.33;;;-4.00;99.90;;;;;;2105386;28;20194;-70
2022/02/13 04:21:17;;;;;;;6.10;3.50;;;-4.00;99.90;;;;;;2088715;28;20811;-70
2022/02/13 04:22:18;;;;;;;4.80;2.60;;;-4.00;99.90;;;;;;2088822;28;20188;-70
2022/02/13 04:23:18;;;;;;;6.33;3.83;;;-4.00;99.90;;;;;;2088764;28;20204;-70
2022/02/13 04:24:19;;;;;;;7.87;4.40;;;-4.00;99.90;;;;;;2088685;28;20180;-70
2022/02/13 04:25:20;;;;;;;5.97;3.67;;;-3.90;99.90;;;;;;2088753;28;20779;-70
2022/02/13 04:26:21;;;;;;;8.13;3.43;;;-3.90;99.90;;;;;;2088739;28;20559;-70
2022/02/13 04:27:21;;;;;;;6.90;3.67;;;-3.90;99.90;;;;;;2088663;28;20185;-70
2022/02/13 04:28:22;;;;;;;6.00;3.77;;;-3.90;99.90;;;;;;2080474;28;20186;-70
2022/02/13 04:29:23;;;;;;;6.90;3.00;;;-3.90;99.90;;;;;;2080416;28;20432;-70
2022/02/13 04:30:23;;;;;;;4.40;2.90;;;-4.00;99.90;;;;;;2088742;28;20219;-70
2022/02/13 04:31:24;;;;;;;6.73;3.43;;;-4.10;99.90;;;;;;2089393;28;20195;-70
2022/02/13 04:32:25;;;;;;;7.50;3.60;;;-4.00;99.90;;;;;;2096648;28;20212;-70
2022/02/13 04:33:25;;;;;;;8.73;3.23;;;-4.00;99.90;;;;;;2096954;28;20199;-70
2022/02/13 04:34:26;;;;;;;7.03;3.50;;;-4.10;99.90;;;;;;2089155;28;20192;-70
2022/02/13 04:35:28;;;;;;;4.97;2.90;;;-4.00;99.90;;;;;;2089396;28;20202;-70
2022/02/13 04:36:28;;;;;;;5.07;2.85;;;-4.00;99.90;;;;;;2096800;28;20193;-70
2022/02/13 04:37:29;;;;;;;5.90;3.57;;;-4.00;99.90;;;;;;2088723;28;20267;-70
2022/02/13 04:38:29;;;;;;;10.97;3.57;;;-4.00;99.90;;;;;;2080104;28;20190;-70
2022/02/13 04:39:30;;;;;;;5.90;3.33;;;-4.00;99.90;;;;;;2096831;28;20175;-70
2022/02/13 04:40:31;;;;;;;8.70;3.40;;;-4.00;99.90;;;;;;2105224;28;20178;-70
2022/02/13 04:41:32;;;;;;;6.13;3.63;;;-3.90;99.90;;;;;;2089279;28;20653;-70
2022/02/13 04:42:32;;;;;;;4.40;3.10;;;-3.90;99.90;;;;;;2089141;28;20176;-70
2022/02/13 04:43:33;;;;;;;5.53;2.97;;;-3.90;99.90;;;;;;2088599;28;20511;-70
2022/02/13 04:44:34;;;;;;;6.90;3.67;;;-3.90;99.90;;;;;;2088532;28;20173;-70
2022/02/13 04:45:34;;;;;;;5.70;3.33;;;-4.00;99.90;;;;;;2089375;28;20620;-70
2022/02/13 04:46:35;;;;;;;6.03;3.27;;;-4.00;99.90;;;;;;2089251;28;20177;-70
2022/02/13 04:47:36;;;;;;;7.23;3.73;;;-4.00;99.90;;;;;;2089333;28;20187;-70
2022/02/13 04:48:36;;;;;;;5.10;3.10;;;-4.10;99.90;;;;;;2089159;28;20185;-70
2022/02/13 04:49:37;;;;;;;5.87;3.73;;;-4.10;99.90;;;;;;2088542;28;20173;-70
2022/02/13 04:50:38;;;;;;;5.87;3.10;;;-4.10;99.90;;;;;;2080304;28;20385;-70
2022/02/13 04:51:38;;;;;;;10.93;3.40;;;-4.10;99.90;;;;;;2088488;28;20180;-70
2022/02/13 04:52:39;;;;;;;7.10;3.93;;;-4.10;99.90;;;;;;2088513;28;20631;-70
2022/02/13 04:53:40;;;;;;;7.37;3.47;;;-4.10;99.90;;;;;;2080224;28;20864;-70
2022/02/13 04:54:40;;;;;;;5.10;2.97;;;-4.00;99.90;;;;;;2088519;28;20224;-70
2022/02/13 04:55:41;;;;;;;4.30;3.37;;;-4.00;99.90;;;;;;2105352;28;20179;-70
2022/02/13 04:56:42;;;;;;;7.77;3.13;;;-4.00;99.90;;;;;;2088484;28;20173;-70
2022/02/13 04:57:44;;;;;;;4.30;3.00;;;-4.00;99.90;;;;;;2088515;28;20180;-70
2022/02/13 04:58:45;;;;;;;5.47;3.25;;;-4.00;99.90;;;;;;2088217;28;20176;-70
2022/02/13 04:59:45;;;;;;;5.20;3.20;;;-4.00;99.90;;;;;;2088269;28;20222;-70
2022/02/13 05:00:46;;;;;;;5.77;3.03;;;-4.00;99.90;;;;;;2088455;28;20200;-70
2022/02/13 05:01:47;;;;;;;7.30;3.20;;;-4.00;99.90;;;;;;2088536;28;20701;-70
2022/02/13 05:02:47;;;;;;;4.87;3.10;;;-4.00;99.90;;;;;;2089101;28;20211;-70
2022/02/13 05:03:48;;;;;;;4.60;2.57;;;-4.00;99.90;;;;;;2088947;28;20209;-70
2022/02/13 05:04:49;;;;;;;5.00;2.90;;;-3.90;99.90;;;;;;2088917;28;20276;-70
2022/02/13 05:05:51;;;;;;;7.00;3.67;;;-3.90;99.90;;;;;;2089003;28;20180;-70
2022/02/13 05:06:52;;;;;;;5.50;2.85;;;-3.90;99.90;;;;;;2089102;28;20639;-70
2022/02/13 05:07:53;;;;;;;5.23;2.90;;;-3.90;99.90;;;;;;2088978;28;20180;-70
2022/02/13 05:08:56;;;;;;;6.43;3.22;;;-3.80;99.90;;;;;;2089031;28;20176;-70
2022/02/13 05:09:56;;;;;;;5.88;3.50;;;-3.90;99.90;;;;;;2088921;28;20192;-70
2022/02/13 05:10:57;;;;;;;10.80;3.60;;;-3.80;99.90;;;;;;2089043;28;20180;-70
2022/02/13 05:11:58;;;;;;;6.47;3.13;;;-3.80;99.90;;;;;;2088346;28;20208;-70
2022/02/13 05:12:58;;;;;;;6.33;3.47;;;-3.90;99.90;;;;;;2088380;28;20212;-70
2022/02/13 05:14:01;;;;;;;6.03;3.53;;;-3.90;99.90;;;;;;2088998;28;20188;-70
2022/02/13 05:15:03;;;;;;;6.43;4.10;;;-3.90;99.90;;;;;;2088116;28;20213;-70
2022/02/13 05:16:04;;;;;;;6.38;3.70;;;-3.90;99.90;;;;;;2088277;28;20742;-70
2022/02/13 05:17:05;;;;;;;5.90;3.83;;;-3.80;99.90;;;;;;2088511;28;20209;-70